createdAt,value
2022-10-11T00:02:05.686Z,102235.00
2022-10-11T00:07:07.168Z,102249.13
2022-10-11T00:12:08.574Z,102255.63
2022-10-11T00:17:10.058Z,102254.16
2022-10-11T00:22:11.487Z,102256.16
2022-10-11T00:27:12.877Z,102266.97
2022-10-11T00:32:14.336Z,102263.41
2022-10-11T00:37:15.818Z,102270.31
2022-10-11T00:42:17.837Z,102268.75
2022-10-11T00:47:24.447Z,102267.16
2022-10-11T00:52:31.805Z,102280.66
2022-10-11T00:57:36.958Z,102287.66
2022-10-11T01:02:39.695Z,102290.00
2022-10-11T01:07:42.388Z,102295.69
2022-10-11T01:13:12.888Z,102300.81
2022-10-11T01:18:28.122Z,102304.00
2022-10-11T01:23:53.321Z,102301.56
2022-10-11T01:29:30.064Z,102300.50
2022-10-11T01:34:56.851Z,102302.94
2022-10-11T01:40:07.962Z,102300.94
2022-10-11T01:45:14.778Z,102310.78
2022-10-11T01:50:40.701Z,102321.69
2022-10-11T01:55:58.040Z,102318.13
2022-10-11T02:01:38.543Z,102317.94
2022-10-11T02:07:09.835Z,102326.06
2022-10-11T02:12:16.578Z,102324.78
2022-10-11T02:17:22.689Z,102325.06
2022-10-11T02:22:36.087Z,102320.78
2022-10-11T02:27:40.616Z,102322.59
2022-10-11T02:32:44.510Z,102322.03
2022-10-11T02:38:15.681Z,102327.63
2022-10-11T02:43:24.348Z,102324.88
2022-10-11T02:48:29.202Z,102330.56
2022-10-11T02:53:31.161Z,102325.03
2022-10-11T02:58:32.580Z,102337.25
2022-10-11T03:03:34.021Z,102341.88
2022-10-11T03:08:35.490Z,102343.53
2022-10-11T03:13:36.997Z,102339.44
2022-10-11T03:18:38.411Z,102350.56
2022-10-11T03:23:40.154Z,102344.78
2022-10-11T03:28:41.700Z,102350.88
2022-10-11T03:33:58.780Z,102349.66
2022-10-11T03:39:00.948Z,102365.63
2022-10-11T03:44:02.394Z,102364.41
2022-10-11T03:49:03.817Z,102365.88
2022-10-11T03:54:05.295Z,102369.50
2022-10-11T03:59:06.835Z,102373.28
2022-10-11T04:04:08.289Z,102358.97
2022-10-11T04:09:09.680Z,102359.31
2022-10-11T04:14:11.088Z,102377.00
2022-10-11T04:19:12.575Z,102373.44
2022-10-11T04:24:13.989Z,102389.56
2022-10-11T04:29:15.471Z,102394.31
2022-10-11T04:34:17.466Z,102401.78
2022-10-11T04:39:18.918Z,102398.13
2022-10-11T04:44:20.356Z,102414.31
2022-10-11T04:49:22.389Z,102406.13
2022-10-11T04:54:24.006Z,102407.44
2022-10-11T04:59:26.665Z,102413.69
2022-10-11T05:04:28.231Z,102406.22
2022-10-11T05:09:29.670Z,102403.78
2022-10-11T05:14:31.169Z,102403.91
2022-10-11T05:19:32.567Z,102405.09
2022-10-11T05:24:36.698Z,102408.09
2022-10-11T05:29:38.176Z,102416.53
2022-10-11T05:34:39.560Z,102421.09
2022-10-11T05:39:41.013Z,102425.75
2022-10-11T05:44:42.453Z,102438.06
2022-10-11T05:49:43.940Z,102435.41
2022-10-11T05:54:48.182Z,102439.38
2022-10-11T05:59:50.081Z,102440.81
2022-10-11T06:04:51.557Z,102449.06
2022-10-11T06:09:53.047Z,102448.38
2022-10-11T06:14:54.491Z,102446.06
2022-10-11T06:19:57.172Z,102462.56
2022-10-11T06:24:58.751Z,102463.28
2022-10-11T06:30:03.151Z,102460.97
2022-10-11T06:35:06.672Z,102466.75
2022-10-11T06:40:08.532Z,102466.00
2022-10-11T06:45:10.234Z,102465.88
2022-10-11T06:50:11.732Z,102482.09
2022-10-11T06:55:13.219Z,102473.34
2022-10-11T07:00:15.267Z,102490.13
2022-10-11T07:05:17.628Z,102486.00
2022-10-11T07:10:19.112Z,102492.34
2022-10-11T07:15:20.635Z,102490.25
2022-10-11T07:20:22.119Z,102482.78
2022-10-11T07:25:23.896Z,102475.00
2022-10-11T07:30:25.344Z,102481.09
2022-10-11T07:35:26.833Z,102478.53
2022-10-11T07:40:28.306Z,102484.53
2022-10-11T07:45:29.815Z,102484.97
2022-10-11T07:50:32.594Z,102477.66
2022-10-11T07:55:40.216Z,102482.28
2022-10-11T08:00:43.095Z,102477.94
2022-10-11T08:05:44.558Z,102482.63
2022-10-11T08:10:46.028Z,102476.16
2022-10-11T08:15:47.448Z,102483.94
2022-10-11T08:20:48.967Z,102485.00
2022-10-11T08:25:56.530Z,102485.75
2022-10-11T08:30:58.124Z,102488.53
2022-10-11T08:36:05.069Z,102491.69
2022-10-11T08:41:26.029Z,102509.63
2022-10-11T08:46:32.215Z,102505.66
2022-10-11T08:51:43.611Z,102509.06
2022-10-11T08:56:46.002Z,102515.81
2022-10-11T09:01:54.369Z,102519.00
2022-10-11T09:07:26.392Z,102523.53
2022-10-11T09:13:11.871Z,102527.56
2022-10-11T09:18:16.100Z,102532.00
2022-10-11T09:23:34.662Z,102530.84
2022-10-11T09:29:13.707Z,102554.91
2022-10-11T09:34:34.736Z,102573.28
2022-10-11T09:39:51.086Z,102598.47
2022-10-11T09:44:52.792Z,102596.34
2022-10-11T09:50:09.211Z,102609.81
2022-10-11T09:55:30.295Z,102615.63
2022-10-11T10:00:34.982Z,102619.72
2022-10-11T10:05:38.463Z,102624.97
2022-10-11T10:11:08.093Z,102611.88
2022-10-11T10:16:35.296Z,102611.56
2022-10-11T10:21:39.718Z,102604.25
2022-10-11T10:27:05.209Z,102602.59
2022-10-11T10:32:28.282Z,102592.84
2022-10-11T10:37:40.548Z,102585.69
2022-10-11T10:42:42.691Z,102569.47
2022-10-11T10:48:46.923Z,102571.72
2022-10-11T10:54:33.231Z,102576.13
2022-10-11T10:59:51.313Z,102565.97
2022-10-11T11:05:30.397Z,102562.00
2022-10-11T11:10:52.450Z,102565.88
2022-10-11T11:16:26.282Z,102565.38
2022-10-11T11:22:14.768Z,102546.97
2022-10-11T11:27:40.732Z,102536.88
2022-10-11T11:39:11.009Z,102525.78
2022-10-11T11:44:16.972Z,102519.25
2022-10-11T11:49:35.603Z,102522.13
2022-10-11T11:54:43.730Z,102520.34
2022-10-11T12:00:09.363Z,102529.09
2022-10-11T12:05:17.311Z,102514.97
2022-10-11T12:10:55.673Z,102522.81
2022-10-11T12:16:05.996Z,102520.13
2022-10-11T12:21:20.278Z,102520.75
2022-10-11T12:26:33.779Z,102514.56
2022-10-11T12:31:38.047Z,102497.72
2022-10-11T12:36:44.909Z,102495.66
2022-10-11T12:41:53.850Z,102493.00
2022-10-11T12:47:31.954Z,102484.63
2022-10-11T12:52:43.297Z,102493.63
2022-10-11T12:58:25.373Z,102492.59
2022-10-11T13:03:49.501Z,102486.13
2022-10-11T13:09:02.651Z,102484.69
2022-10-11T13:14:14.014Z,102483.16
2022-10-11T13:19:21.727Z,102477.81
2022-10-11T13:24:24.910Z,102473.03
2022-10-11T13:29:37.163Z,102477.56
2022-10-11T13:34:41.003Z,102464.84
2022-10-11T13:39:42.942Z,102458.59
2022-10-11T13:44:46.474Z,102456.28
2022-10-11T13:55:51.178Z,102460.06
2022-10-11T14:01:00.153Z,102464.69
2022-10-11T14:06:05.369Z,102455.41
2022-10-11T14:11:08.336Z,102455.84
2022-10-11T14:16:28.907Z,102447.06
2022-10-11T14:21:36.803Z,102450.03
2022-10-11T14:26:41.191Z,102451.06
2022-10-11T14:31:43.201Z,102449.47
2022-10-11T14:36:44.666Z,102443.75
2022-10-11T14:41:47.225Z,102435.34
2022-10-11T14:46:50.519Z,102443.50
2022-10-11T14:51:54.640Z,102441.13
2022-10-11T14:57:01.899Z,102441.09
2022-10-11T15:02:05.344Z,102428.91
2022-10-11T15:07:07.878Z,102437.09
2022-10-11T15:12:09.296Z,102427.78
2022-10-11T15:17:12.537Z,102429.41
2022-10-11T15:22:14.020Z,102432.25
2022-10-11T15:27:17.284Z,102430.25
2022-10-11T15:32:19.819Z,102432.38
2022-10-11T15:37:21.613Z,102431.16
2022-10-11T15:42:23.110Z,102429.97
2022-10-11T15:47:24.592Z,102433.84
2022-10-11T15:52:26.377Z,102428.81
2022-10-11T15:57:27.946Z,102429.78
2022-10-11T16:02:31.277Z,102441.88
2022-10-11T16:07:32.711Z,102449.09
2022-10-11T16:12:37.155Z,102443.00
2022-10-11T16:17:41.407Z,102451.13
2022-10-11T16:22:44.747Z,102452.03
2022-10-11T16:27:46.491Z,102442.22
2022-10-11T16:32:48.322Z,102456.19
2022-10-11T16:37:49.939Z,102461.09
2022-10-11T16:42:51.429Z,102470.84
2022-10-11T16:47:52.925Z,102480.25
2022-10-11T16:52:57.568Z,102476.97
2022-10-11T16:57:59.061Z,102479.53
2022-10-11T17:03:03.560Z,102481.03
2022-10-11T17:08:04.993Z,102476.34
2022-10-11T17:13:09.621Z,102483.53
2022-10-11T17:18:11.199Z,102477.22
2022-10-11T17:23:13.170Z,102472.47
2022-10-11T17:28:20.587Z,102475.78
2022-10-11T17:33:26.318Z,102479.34
2022-10-11T17:38:30.693Z,102482.50
2022-10-11T17:43:37.408Z,102482.38
2022-10-11T17:48:39.412Z,102484.41
2022-10-11T17:53:41.523Z,102477.50
2022-10-11T17:58:43.660Z,102480.59
2022-10-11T18:03:53.705Z,102482.63
2022-10-11T18:08:57.533Z,102476.09
2022-10-11T18:14:06.705Z,102477.72
2022-10-11T18:19:11.491Z,102476.28
2022-10-11T18:24:51.975Z,102479.19
2022-10-11T18:35:18.931Z,102461.22
2022-10-11T18:40:29.086Z,102460.78
2022-10-11T18:45:41.940Z,102469.06
2022-10-11T18:50:51.985Z,102470.81
2022-10-11T18:56:17.190Z,102462.53
2022-10-11T19:01:59.091Z,102458.56
2022-10-11T19:07:05.282Z,102453.22
2022-10-11T19:12:12.266Z,102454.53
2022-10-11T19:17:19.612Z,102442.72
2022-10-11T19:22:42.045Z,102453.63
2022-10-11T19:28:05.447Z,102454.84
2022-10-11T19:33:16.935Z,102441.41
2022-10-11T19:38:30.880Z,102425.28
2022-10-11T19:43:45.807Z,102435.59
2022-10-11T19:48:52.306Z,102426.81
2022-10-11T19:54:04.984Z,102430.84
2022-10-11T19:59:11.976Z,102426.25
2022-10-11T20:10:15.737Z,102418.22
2022-10-11T20:15:30.594Z,102416.34
2022-10-11T20:20:34.655Z,102420.44
2022-10-11T20:26:12.342Z,102444.88
2022-10-11T20:31:31.080Z,102427.84
2022-10-11T20:36:49.276Z,102432.97
2022-10-11T20:52:50.637Z,102435.41
2022-10-11T20:57:59.898Z,102426.00
2022-10-11T21:03:25.244Z,102434.13
2022-10-11T21:08:30.762Z,102434.13
2022-10-11T21:13:40.571Z,102433.25
2022-10-11T21:18:48.663Z,102450.63
2022-10-11T21:24:10.033Z,102426.00
2022-10-11T21:34:34.441Z,102439.63
2022-10-11T21:39:52.736Z,102428.69
2022-10-11T21:44:56.231Z,102433.66
2022-10-11T21:50:13.891Z,102424.09
2022-10-11T21:55:25.250Z,102430.13
2022-10-11T22:00:30.777Z,102431.88
2022-10-11T22:05:51.174Z,102419.78
2022-10-11T22:11:00.844Z,102428.16
2022-10-11T22:21:44.724Z,102429.66
2022-10-11T22:26:53.342Z,102423.44
2022-10-11T22:32:07.905Z,102428.66
2022-10-11T22:37:15.517Z,102409.94
2022-10-11T22:42:29.685Z,102426.00
2022-10-11T22:47:41.708Z,102424.69
2022-10-11T22:52:46.441Z,102422.13
2022-10-11T22:57:53.298Z,102424.59
2022-10-11T23:03:05.262Z,102402.00
2022-10-11T23:08:12.698Z,102404.88
2022-10-11T23:13:17.472Z,102423.88
2022-10-11T23:18:32.083Z,102423.09
2022-10-11T23:23:39.952Z,102418.94
2022-10-11T23:28:43.916Z,102420.69
2022-10-11T23:33:49.365Z,102417.72
2022-10-11T23:39:00.529Z,102425.13
2022-10-11T23:44:08.255Z,102413.50
2022-10-11T23:49:12.982Z,102410.34
2022-10-11T23:54:19.549Z,102413.19
2022-10-11T23:59:26.824Z,102402.38
